Titusville, New Jersey
Current Conditions -  °F | °C
As of 8:53 PM on Saturday 25 Oct 2014 (Local Time) from KTTN Reporting Station
Broken Clouds Broken Clouds  
Wind Chill: 62°   Ceiling: 6500
Heat Index: 62°   Visibility: 10mi
Dew Point: 43°   Wind: 8mph
Humidity: 50%   Direction: 230°SW
Pressure: 29.65"   Gusts: NA
Location:  40.31°N, 74.88°W
Report Text: KTTN 260053Z 23007KT 10SM BKN065 17/06 A2965 RMK AO2 SLP035 T01670061
Loading
Personal Weather Stations






























Interactive Weather Map
Tropical Storm Tracking
New forecast layout! Learn more

10-Day Weather Forecast

Advertisements
Track Severe Weather on mobile